createdAt,value
2022-07-28T00:01:00.178Z,76.70
2022-07-28T00:03:28.438Z,76.70
2022-07-28T00:05:56.716Z,76.50
2022-07-28T00:08:25.116Z,76.30
2022-07-28T00:10:54.733Z,77.80
2022-07-28T00:13:23.058Z,76.70
2022-07-28T00:15:51.541Z,77.10
2022-07-28T00:18:20.013Z,77.10
2022-07-28T00:20:48.420Z,77.30
2022-07-28T00:23:16.660Z,76.50
2022-07-28T00:25:48.652Z,76.90
2022-07-28T00:28:18.421Z,77.10
2022-07-28T00:30:46.642Z,77.60
2022-07-28T00:33:14.861Z,77.60
2022-07-28T00:35:43.164Z,79.10
2022-07-28T00:38:16.771Z,79.30
2022-07-28T00:41:14.198Z,81.00
2022-07-28T00:43:46.129Z,79.90
2022-07-28T00:46:17.786Z,80.60
2022-07-28T00:48:50.758Z,80.40
2022-07-28T00:51:21.804Z,79.90
2022-07-28T00:53:50.665Z,80.20
2022-07-28T00:56:20.072Z,79.90
2022-07-28T00:58:50.474Z,80.60
2022-07-28T01:01:21.159Z,81.90
2022-07-28T01:03:53.231Z,82.30
2022-07-28T01:06:47.859Z,82.30
2022-07-28T01:09:38.532Z,83.80
2022-07-28T01:12:17.497Z,83.40
2022-07-28T01:14:52.322Z,84.10
2022-07-28T01:17:28.849Z,83.40
2022-07-28T01:20:08.342Z,83.60
2022-07-28T01:22:42.157Z,83.80
2022-07-28T01:25:22.682Z,83.20
2022-07-28T01:28:08.324Z,83.80
2022-07-28T01:30:42.838Z,83.60
2022-07-28T01:33:17.656Z,84.00
2022-07-28T01:35:53.162Z,84.00
2022-07-28T01:38:24.437Z,84.70
2022-07-28T01:40:55.827Z,86.40
2022-07-28T01:43:27.569Z,85.60
2022-07-28T01:45:58.572Z,85.80
2022-07-28T01:48:29.216Z,86.60
2022-07-28T01:50:58.537Z,85.50
2022-07-28T01:53:27.811Z,85.30
2022-07-28T01:55:57.101Z,86.90
2022-07-28T01:58:29.007Z,86.60
2022-07-28T02:01:00.442Z,86.60
2022-07-28T02:03:31.984Z,87.10
2022-07-28T02:06:03.627Z,86.40
2022-07-28T02:08:33.226Z,86.90
2022-07-28T02:11:16.059Z,87.70
2022-07-28T02:13:45.453Z,86.80
2022-07-28T02:16:16.966Z,87.50
2022-07-28T02:18:46.462Z,87.30
2022-07-28T02:21:16.163Z,87.10
2022-07-28T02:23:47.008Z,86.80
2022-07-28T02:26:18.003Z,87.50
2022-07-28T02:28:52.670Z,87.70
2022-07-28T02:31:27.898Z,88.20
2022-07-28T02:34:11.891Z,87.70
2022-07-28T02:36:48.406Z,88.80
2022-07-28T02:39:24.094Z,87.90
2022-07-28T02:42:00.039Z,87.90
2022-07-28T02:44:32.883Z,88.60
2022-07-28T02:47:06.417Z,89.40
2022-07-28T02:49:37.427Z,89.70
2022-07-28T02:52:08.827Z,89.40
2022-07-28T02:54:38.544Z,89.40
2022-07-28T02:57:07.881Z,88.80
2022-07-28T02:59:37.661Z,88.60
2022-07-28T03:02:09.354Z,89.20
2022-07-28T03:04:55.822Z,88.80
2022-07-28T03:07:24.267Z,89.00
2022-07-28T03:09:53.399Z,90.20
2022-07-28T03:12:21.779Z,90.10
2022-07-28T03:14:50.044Z,89.90
2022-07-28T03:17:20.289Z,89.90
2022-07-28T03:19:48.554Z,90.10
2022-07-28T03:22:17.070Z,90.10
2022-07-28T03:24:50.840Z,90.10
2022-07-28T03:27:25.488Z,90.10
2022-07-28T03:30:03.585Z,90.20
2022-07-28T03:32:36.755Z,90.60
2022-07-28T03:35:05.575Z,90.60
2022-07-28T03:37:39.054Z,90.60
2022-07-28T03:40:13.429Z,90.60
2022-07-28T03:42:45.004Z,90.60
2022-07-28T03:45:13.577Z,90.70
2022-07-28T03:47:51.946Z,91.00
2022-07-28T03:50:23.397Z,91.20
2022-07-28T03:52:51.981Z,91.00
2022-07-28T03:55:20.928Z,91.10
2022-07-28T03:57:49.246Z,91.50
2022-07-28T04:00:19.194Z,92.40
2022-07-28T04:02:49.524Z,92.10
2022-07-28T04:05:19.421Z,92.50
2022-07-28T04:07:47.677Z,92.40
2022-07-28T04:10:19.098Z,91.80
2022-07-28T04:12:49.647Z,91.20
2022-07-28T04:15:19.579Z,91.40
2022-07-28T04:17:49.709Z,91.30
2022-07-28T04:20:19.109Z,91.30
2022-07-28T04:22:48.260Z,91.40
2022-07-28T04:25:18.840Z,91.60
2022-07-28T04:27:47.470Z,91.90
2022-07-28T04:30:18.068Z,92.10
2022-07-28T04:32:49.613Z,92.20
2022-07-28T04:35:19.357Z,92.30
2022-07-28T04:37:49.550Z,92.60
2022-07-28T04:40:18.431Z,93.00
2022-07-28T04:42:46.888Z,93.00
2022-07-28T04:45:15.164Z,92.60
2022-07-28T04:47:43.410Z,92.10
2022-07-28T04:50:15.900Z,91.80
2022-07-28T04:52:49.179Z,91.80
2022-07-28T04:55:18.733Z,91.90
2022-07-28T04:57:48.593Z,91.70
2022-07-28T05:00:17.672Z,91.40
2022-07-28T05:02:47.927Z,90.70
2022-07-28T05:05:18.135Z,90.70
2022-07-28T05:07:46.469Z,90.50
2022-07-28T05:10:15.264Z,90.30
2022-07-28T05:12:45.271Z,89.90
2022-07-28T05:15:13.469Z,90.20
2022-07-28T05:17:41.946Z,90.30
2022-07-28T05:20:14.064Z,89.90
2022-07-28T05:22:45.641Z,89.00
2022-07-28T05:25:19.515Z,89.40
2022-07-28T05:27:48.778Z,88.60
2022-07-28T05:30:18.347Z,88.20
2022-07-28T05:32:47.809Z,89.20
2022-07-28T05:35:16.233Z,88.60
2022-07-28T05:37:45.887Z,89.00
2022-07-28T05:40:16.295Z,89.90
2022-07-28T05:42:47.655Z,88.80
2022-07-28T05:45:17.749Z,88.60
2022-07-28T05:47:48.560Z,87.90
2022-07-28T05:50:18.156Z,87.90
2022-07-28T05:52:49.138Z,89.00
2022-07-28T05:55:17.640Z,88.40
2022-07-28T05:57:46.293Z,87.90
2022-07-28T06:00:18.021Z,86.80
2022-07-28T06:02:49.108Z,86.80
2022-07-28T06:05:19.498Z,85.80
2022-07-28T06:07:51.656Z,84.90
2022-07-28T06:10:22.158Z,84.00
2022-07-28T06:12:53.359Z,84.10
2022-07-28T06:15:23.616Z,84.00
2022-07-28T06:17:53.274Z,83.40
2022-07-28T06:20:23.643Z,83.40
2022-07-28T06:22:55.829Z,82.80
2022-07-28T06:25:27.036Z,81.90
2022-07-28T06:28:01.105Z,81.70
2022-07-28T06:30:30.008Z,82.50
2022-07-28T06:32:59.403Z,82.70
2022-07-28T06:35:27.811Z,80.40
2022-07-28T06:37:57.413Z,81.40
2022-07-28T06:40:25.869Z,79.90
2022-07-28T06:42:54.240Z,79.30
2022-07-28T06:45:22.837Z,80.60
2022-07-28T06:47:51.417Z,80.20
2022-07-28T06:50:25.055Z,80.80
2022-07-28T06:52:56.681Z,79.30
2022-07-28T06:55:25.125Z,79.50
2022-07-28T06:57:54.275Z,78.20
2022-07-28T07:00:22.790Z,78.00
2022-07-28T07:02:50.998Z,76.90
2022-07-28T07:05:19.524Z,78.20
2022-07-28T07:07:47.764Z,77.40
2022-07-28T07:10:17.567Z,77.10
2022-07-28T07:12:45.819Z,76.90
2022-07-28T07:15:14.163Z,77.60
2022-07-28T07:17:42.450Z,76.50
2022-07-28T07:20:13.389Z,76.90
2022-07-28T07:22:45.595Z,76.10
2022-07-28T07:25:17.826Z,75.60
2022-07-28T07:27:47.084Z,76.10
2022-07-28T07:30:17.044Z,75.80
2022-07-28T07:32:45.668Z,74.60
2022-07-28T07:35:14.141Z,73.90
2022-07-28T07:37:42.502Z,73.90
2022-07-28T07:40:11.237Z,74.80
2022-07-28T07:42:40.855Z,73.50
2022-07-28T07:45:10.429Z,71.70
2022-07-28T07:47:38.709Z,73.20
2022-07-28T07:50:08.229Z,73.30
2022-07-28T07:52:36.421Z,73.20
2022-07-28T07:55:05.673Z,71.30
2022-07-28T07:57:33.913Z,72.00
2022-07-28T08:00:03.759Z,70.20
2022-07-28T08:02:32.493Z,70.90
2022-07-28T08:05:01.798Z,69.20
2022-07-28T08:07:30.057Z,69.80
2022-07-28T08:09:58.378Z,69.20
2022-07-28T08:12:26.644Z,68.90
2022-07-28T08:14:55.184Z,66.80
2022-07-28T08:17:26.178Z,67.40
2022-07-28T08:19:54.781Z,66.80
2022-07-28T08:22:23.290Z,67.00
2022-07-28T08:24:51.760Z,66.10
2022-07-28T08:27:20.167Z,67.90
2022-07-28T08:29:48.558Z,64.80
2022-07-28T08:32:16.856Z,63.70
2022-07-28T08:34:46.449Z,64.00
2022-07-28T08:37:14.690Z,62.70
2022-07-28T08:39:42.875Z,62.50
2022-07-28T08:42:16.867Z,62.00
2022-07-28T08:44:53.650Z,62.30
2022-07-28T08:47:22.712Z,61.80
2022-07-28T08:49:55.390Z,60.70
2022-07-28T08:52:26.307Z,60.30
2022-07-28T08:54:57.190Z,59.00
2022-07-28T08:57:29.942Z,58.90
2022-07-28T08:59:58.586Z,58.70
2022-07-28T09:02:28.961Z,59.00
2022-07-28T09:05:00.570Z,60.70
2022-07-28T09:07:29.364Z,59.20
2022-07-28T09:10:02.858Z,57.00
2022-07-28T09:12:31.362Z,56.40
2022-07-28T09:14:59.565Z,56.60
2022-07-28T09:17:28.315Z,54.80
2022-07-28T09:19:58.002Z,54.00
2022-07-28T09:22:26.794Z,54.30
2022-07-28T09:24:55.440Z,52.00
2022-07-28T09:27:23.719Z,52.30
2022-07-28T09:30:01.377Z,52.90
2022-07-28T09:32:31.320Z,51.10
2022-07-28T09:35:01.116Z,50.50
2022-07-28T09:37:29.761Z,49.10
2022-07-28T09:39:59.299Z,49.90
2022-07-28T09:42:29.744Z,50.30
2022-07-28T09:45:24.510Z,49.00
2022-07-28T09:48:13.707Z,47.50
2022-07-28T09:50:44.535Z,49.40
2022-07-28T09:53:28.231Z,47.90
2022-07-28T09:55:59.700Z,46.40
2022-07-28T09:58:29.572Z,46.70
2022-07-28T10:01:07.711Z,46.20
2022-07-28T10:03:38.488Z,48.10
2022-07-28T10:06:09.390Z,47.80
2022-07-28T10:08:43.556Z,47.60
2022-07-28T10:11:13.774Z,45.00
2022-07-28T10:14:00.445Z,43.00
2022-07-28T10:16:30.910Z,42.00
2022-07-28T10:19:01.838Z,41.70
2022-07-28T10:21:35.900Z,37.90
2022-07-28T10:24:08.232Z,37.90
2022-07-28T10:26:44.168Z,38.80
2022-07-28T10:29:16.637Z,37.40
2022-07-28T10:31:50.657Z,40.60
2022-07-28T10:34:24.585Z,39.80
2022-07-28T10:36:56.758Z,39.10
2022-07-28T10:39:31.959Z,40.10
2022-07-28T10:42:00.692Z,39.70
2022-07-28T10:44:29.528Z,40.00
2022-07-28T10:46:58.971Z,38.30
2022-07-28T10:49:32.696Z,37.40
2022-07-28T10:52:06.703Z,39.20
2022-07-28T10:54:55.775Z,36.80
2022-07-28T10:57:25.731Z,35.00
2022-07-28T11:00:13.301Z,32.50
2022-07-28T11:02:55.343Z,31.80
2022-07-28T11:05:37.581Z,33.00
2022-07-28T11:08:09.910Z,34.50
2022-07-28T11:10:49.954Z,33.70
2022-07-28T11:13:30.400Z,34.40
2022-07-28T11:16:22.009Z,32.80
2022-07-28T11:19:08.070Z,32.70
2022-07-28T11:22:28.169Z,34.40
2022-07-28T11:25:18.732Z,31.30
2022-07-28T11:28:07.474Z,32.70
2022-07-28T11:30:54.536Z,30.10
2022-07-28T11:33:24.732Z,31.90
2022-07-28T11:35:58.521Z,32.20
2022-07-28T11:38:28.295Z,32.50
2022-07-28T11:40:58.494Z,32.80
2022-07-28T11:43:37.796Z,31.90
2022-07-28T11:46:38.455Z,32.20
2022-07-28T11:49:27.715Z,32.40
2022-07-28T11:52:16.709Z,32.40
2022-07-28T11:54:57.294Z,32.70
2022-07-28T11:57:28.525Z,34.20
2022-07-28T12:00:00.302Z,36.00
2022-07-28T12:02:32.082Z,36.90
2022-07-28T12:05:09.309Z,39.10
2022-07-28T12:07:45.039Z,38.50
2022-07-28T12:13:29.138Z,38.80
2022-07-28T12:15:57.893Z,38.80
2022-07-28T12:18:26.308Z,39.50
2022-07-28T12:20:55.733Z,37.60
2022-07-28T12:23:34.990Z,36.00
2022-07-28T12:26:32.500Z,36.50
2022-07-28T12:29:13.615Z,38.00
2022-07-28T12:31:55.619Z,37.70
2022-07-28T12:34:28.874Z,36.90
2022-07-28T12:36:59.799Z,36.80
2022-07-28T12:39:29.294Z,36.90
2022-07-28T12:42:05.734Z,39.70
2022-07-28T12:44:37.570Z,38.90
2022-07-28T12:47:09.099Z,39.20
2022-07-28T12:49:39.032Z,39.80
2022-07-28T12:52:18.084Z,42.00
2022-07-28T12:54:54.717Z,38.60
2022-07-28T12:57:48.835Z,38.80
2022-07-28T13:00:23.623Z,37.60
2022-07-28T13:02:59.013Z,40.10
2022-07-28T13:05:50.191Z,38.90
2022-07-28T13:08:18.994Z,39.80
2022-07-28T13:10:51.693Z,40.10
2022-07-28T13:13:24.004Z,40.60
2022-07-28T13:16:17.023Z,40.30
2022-07-28T13:18:47.739Z,39.70
2022-07-28T13:21:16.665Z,39.80
2022-07-28T13:23:45.550Z,38.20
2022-07-28T13:26:13.736Z,38.30
2022-07-28T13:28:44.267Z,37.10
2022-07-28T13:31:12.598Z,34.20
2022-07-28T13:33:42.167Z,34.50
2022-07-28T13:36:10.671Z,33.60
2022-07-28T13:38:39.062Z,35.90
2022-07-28T13:41:07.375Z,34.10
2022-07-28T13:43:36.011Z,34.80
2022-07-28T13:46:05.396Z,33.90
2022-07-28T13:48:35.805Z,34.80
2022-07-28T13:51:05.641Z,33.90
2022-07-28T13:53:35.921Z,36.20
2022-07-28T13:56:08.989Z,34.40
2022-07-28T13:58:38.464Z,34.50
2022-07-28T14:01:07.694Z,34.50
2022-07-28T14:03:50.713Z,35.30
2022-07-28T14:06:25.900Z,36.80
2022-07-28T14:08:54.186Z,35.60
2022-07-28T14:11:23.961Z,35.60
2022-07-28T14:13:52.980Z,35.30
2022-07-28T14:16:21.748Z,35.00
2022-07-28T14:18:50.356Z,34.80
2022-07-28T14:21:19.150Z,34.20
2022-07-28T14:23:49.057Z,34.10
2022-07-28T14:26:34.971Z,33.40
2022-07-28T14:29:04.814Z,32.50
2022-07-28T14:31:40.189Z,31.60
2022-07-28T14:34:08.506Z,33.40
2022-07-28T14:36:36.891Z,33.70
2022-07-28T14:39:12.308Z,34.70
2022-07-28T14:41:42.569Z,36.90
2022-07-28T14:44:15.587Z,36.80
2022-07-28T14:46:52.861Z,34.10
2022-07-28T14:49:21.237Z,33.10
2022-07-28T14:51:50.384Z,31.30
2022-07-28T14:54:19.974Z,32.50
2022-07-28T14:56:48.186Z,33.00
2022-07-28T14:59:16.428Z,31.80
2022-07-28T15:01:44.803Z,34.20
2022-07-28T15:04:14.570Z,35.40
2022-07-28T15:06:43.239Z,36.00
2022-07-28T15:09:11.547Z,35.60
2022-07-28T15:11:41.964Z,35.70
2022-07-28T15:14:10.260Z,35.10
2022-07-28T15:16:40.058Z,35.40
2022-07-28T15:19:09.330Z,35.10
2022-07-28T15:21:39.788Z,34.80
2022-07-28T15:24:10.186Z,35.00
2022-07-28T15:26:40.277Z,35.00
2022-07-28T15:29:08.966Z,34.20
2022-07-28T15:31:37.693Z,34.10
2022-07-28T15:34:08.291Z,34.20
2022-07-28T15:36:38.734Z,36.90
2022-07-28T15:39:09.220Z,36.60
2022-07-28T15:41:37.538Z,33.90
2022-07-28T15:44:07.393Z,31.80
2022-07-28T15:46:35.797Z,31.60
2022-07-28T15:49:07.429Z,30.40
2022-07-28T15:51:36.952Z,32.50
2022-07-28T15:54:06.937Z,31.00
2022-07-28T15:56:37.274Z,33.10
2022-07-28T15:59:08.019Z,32.50
2022-07-28T16:01:36.349Z,32.70
2022-07-28T16:04:04.800Z,32.50
2022-07-28T16:06:46.996Z,32.20
2022-07-28T16:09:15.444Z,33.00
2022-07-28T16:11:43.950Z,33.90
2022-07-28T16:14:13.784Z,34.20
2022-07-28T16:16:42.420Z,35.10
2022-07-28T16:19:31.551Z,35.60
2022-07-28T16:21:59.397Z,35.60
2022-07-28T16:24:27.584Z,35.90
2022-07-28T16:26:55.877Z,36.50
2022-07-28T16:29:25.521Z,37.10
2022-07-28T16:31:53.969Z,37.40
2022-07-28T16:34:22.694Z,38.60
2022-07-28T16:36:50.908Z,38.80
2022-07-28T16:39:19.163Z,39.20
2022-07-28T16:41:48.518Z,39.50
2022-07-28T16:44:17.329Z,39.70
2022-07-28T16:46:47.294Z,40.10
2022-07-28T16:49:16.774Z,40.30
2022-07-28T16:51:45.045Z,40.60
2022-07-28T16:54:14.332Z,41.10
2022-07-28T16:56:43.012Z,40.10
2022-07-28T16:59:11.261Z,39.70
2022-07-28T17:01:45.150Z,40.50
2022-07-28T17:04:16.576Z,39.80
2022-07-28T17:06:45.363Z,41.20
2022-07-28T17:09:16.687Z,41.10
2022-07-28T17:11:45.140Z,41.20
2022-07-28T17:14:13.662Z,41.50
2022-07-28T17:16:42.228Z,41.20
2022-07-28T17:19:10.725Z,42.00
2022-07-28T17:21:40.899Z,42.10
2022-07-28T17:24:12.300Z,42.30
2022-07-28T17:29:32.200Z,42.40
2022-07-28T17:32:00.484Z,43.20
2022-07-28T17:34:32.026Z,43.50
2022-07-28T17:37:01.688Z,43.80
2022-07-28T17:39:29.989Z,42.70
2022-07-28T17:41:58.373Z,43.00
2022-07-28T17:44:26.939Z,44.00
2022-07-28T17:46:55.752Z,43.80
2022-07-28T17:49:24.188Z,43.60
2022-07-28T17:51:52.951Z,44.10
2022-07-28T17:54:24.973Z,44.60
2022-07-28T17:56:53.967Z,44.30
2022-07-28T17:59:22.242Z,44.90
2022-07-28T18:01:50.579Z,44.90
2022-07-28T18:04:19.684Z,45.20
2022-07-28T18:06:48.417Z,45.30
2022-07-28T18:09:16.902Z,45.80
2022-07-28T18:11:58.016Z,46.70
2022-07-28T18:14:28.011Z,47.90
2022-07-28T18:16:57.311Z,47.60
2022-07-28T18:19:26.022Z,47.80
2022-07-28T18:21:54.544Z,48.20
2022-07-28T18:24:23.192Z,48.70
2022-07-28T18:26:53.605Z,49.10
2022-07-28T18:29:22.831Z,49.70
2022-07-28T18:31:54.390Z,49.40
2022-07-28T18:34:23.764Z,50.20
2022-07-28T18:36:54.014Z,49.90
2022-07-28T18:39:22.475Z,50.20
2022-07-28T18:41:55.638Z,50.00
2022-07-28T18:44:24.267Z,50.50
2022-07-28T18:46:52.643Z,50.50
2022-07-28T18:49:21.609Z,51.10
2022-07-28T18:51:50.307Z,50.50
2022-07-28T18:54:27.398Z,51.00
2022-07-28T18:56:57.687Z,51.30
2022-07-28T18:59:26.193Z,51.00
2022-07-28T19:01:54.476Z,51.00
2022-07-28T19:04:22.796Z,51.30
2022-07-28T19:06:51.184Z,51.60
2022-07-28T19:09:19.510Z,52.20
2022-07-28T19:11:48.132Z,52.50
2022-07-28T19:14:18.863Z,52.50
2022-07-28T19:16:47.626Z,53.40
2022-07-28T19:19:16.403Z,53.50
2022-07-28T19:21:44.627Z,53.40
2022-07-28T19:24:14.065Z,53.40
2022-07-28T19:26:45.090Z,53.40
2022-07-28T19:29:13.589Z,53.50
2022-07-28T19:31:43.170Z,54.00
2022-07-28T19:34:12.067Z,54.00
2022-07-28T19:36:41.629Z,54.20
2022-07-28T19:39:12.159Z,54.30
2022-07-28T19:41:40.546Z,54.50
2022-07-28T19:44:09.455Z,54.80
2022-07-28T19:46:39.368Z,55.80
2022-07-28T19:49:11.747Z,55.20
2022-07-28T19:51:40.168Z,55.70
2022-07-28T19:54:08.642Z,57.40
2022-07-28T19:56:39.419Z,57.80
2022-07-28T19:59:08.290Z,56.90
2022-07-28T20:01:36.752Z,57.00
2022-07-28T20:04:17.367Z,56.60
2022-07-28T20:06:46.147Z,56.10
2022-07-28T20:09:16.584Z,57.00
2022-07-28T20:11:45.429Z,56.70
2022-07-28T20:14:13.994Z,56.90
2022-07-28T20:16:42.911Z,57.00
2022-07-28T20:19:17.489Z,56.40
2022-07-28T20:21:47.672Z,55.20
2022-07-28T20:24:19.411Z,55.50
2022-07-28T20:26:48.128Z,57.20
2022-07-28T20:29:16.973Z,56.40
2022-07-28T20:31:45.438Z,55.70
2022-07-28T20:34:15.893Z,55.40
2022-07-28T20:36:44.461Z,59.00
2022-07-28T20:39:42.145Z,58.60
2022-07-28T20:42:01.111Z,58.00
2022-07-28T20:44:30.200Z,61.20
2022-07-28T20:47:00.380Z,64.80
2022-07-28T20:49:30.410Z,67.60
2022-07-28T20:51:59.570Z,71.30
2022-07-28T20:54:28.563Z,73.50
2022-07-28T20:56:56.878Z,77.30
2022-07-28T20:59:27.940Z,79.30
2022-07-28T21:01:57.147Z,79.70
2022-07-28T21:04:26.314Z,81.20
2022-07-28T21:07:01.132Z,82.50
2022-07-28T21:09:30.950Z,83.60
2022-07-28T21:11:59.295Z,83.60
2022-07-28T21:14:27.663Z,84.50
2022-07-28T21:16:56.251Z,86.40
2022-07-28T21:19:24.609Z,87.90
2022-07-28T21:21:54.170Z,89.90
2022-07-28T21:24:23.743Z,90.50
2022-07-28T21:26:53.430Z,91.30
2022-07-28T21:32:04.190Z,92.10
2022-07-28T21:34:34.908Z,93.40
2022-07-28T21:37:03.617Z,94.30
2022-07-28T21:39:33.766Z,94.80
2022-07-28T21:42:05.711Z,95.60
2022-07-28T21:44:35.874Z,96.50
2022-07-28T21:47:04.288Z,97.00
2022-07-28T21:49:32.716Z,97.40
2022-07-28T21:52:01.239Z,97.40
2022-07-28T21:54:29.619Z,97.40
2022-07-28T21:56:59.408Z,97.40
2022-07-28T21:59:27.639Z,97.40
2022-07-28T22:01:56.108Z,97.40
2022-07-28T22:04:25.750Z,97.40
2022-07-28T22:06:54.189Z,97.40
2022-07-28T22:09:22.875Z,97.40
2022-07-28T22:11:51.048Z,97.40
2022-07-28T22:14:20.626Z,97.40
2022-07-28T22:16:48.909Z,97.40
2022-07-28T22:19:17.251Z,97.40
2022-07-28T22:21:45.504Z,97.40
2022-07-28T22:24:16.723Z,97.40
2022-07-28T22:26:45.352Z,97.40
2022-07-28T22:29:13.613Z,97.40
2022-07-28T22:31:43.246Z,97.40
2022-07-28T22:34:12.000Z,97.40
2022-07-28T22:36:40.378Z,97.40
2022-07-28T22:39:08.672Z,97.40
2022-07-28T22:41:36.931Z,97.40
2022-07-28T22:44:05.837Z,97.40
2022-07-28T22:46:35.250Z,97.40
2022-07-28T22:49:05.406Z,97.40
2022-07-28T22:51:33.721Z,97.40
2022-07-28T22:54:02.361Z,97.40
2022-07-28T22:56:34.776Z,97.40
2022-07-28T22:59:06.431Z,97.40
2022-07-28T23:01:34.893Z,97.40
2022-07-28T23:04:05.651Z,97.40
2022-07-28T23:06:36.182Z,97.40
2022-07-28T23:09:04.701Z,97.40
2022-07-28T23:11:32.953Z,97.40
2022-07-28T23:14:01.173Z,97.40
2022-07-28T23:16:29.529Z,97.40
2022-07-28T23:18:58.712Z,97.40
2022-07-28T23:21:29.440Z,97.40
2022-07-28T23:23:57.672Z,97.40
2022-07-28T23:26:25.855Z,97.40
2022-07-28T23:28:54.055Z,97.40
2022-07-28T23:31:22.342Z,97.40
2022-07-28T23:33:56.600Z,97.40
2022-07-28T23:36:26.663Z,97.40
2022-07-28T23:39:01.499Z,97.40
2022-07-28T23:41:29.784Z,97.40
2022-07-28T23:43:57.912Z,97.40
2022-07-28T23:46:26.192Z,97.40
2022-07-28T23:48:54.526Z,97.40
2022-07-28T23:51:32.054Z,97.40
2022-07-28T23:54:14.596Z,97.40
2022-07-28T23:56:43.422Z,97.40
2022-07-28T23:59:14.086Z,97.40
